createdAt,value
2022-08-16T00:02:33.550Z,17.70
2022-08-16T00:05:01.519Z,17.70
2022-08-16T00:07:29.867Z,17.60
2022-08-16T00:09:58.762Z,17.60
2022-08-16T00:12:28.234Z,17.50
2022-08-16T00:14:57.653Z,17.50
2022-08-16T00:17:26.741Z,17.40
2022-08-16T00:19:55.653Z,17.40
2022-08-16T00:22:25.025Z,17.40
2022-08-16T00:24:55.953Z,17.30
2022-08-16T00:27:23.516Z,17.30
2022-08-16T00:30:08.521Z,17.20
2022-08-16T00:32:40.055Z,17.20
2022-08-16T00:35:15.536Z,17.20
2022-08-16T00:37:57.624Z,17.10
2022-08-16T00:40:50.775Z,17.10
2022-08-16T00:43:23.428Z,17.00
2022-08-16T00:46:00.576Z,17.00
2022-08-16T00:48:31.731Z,17.00
2022-08-16T00:51:17.311Z,16.90
2022-08-16T00:53:46.235Z,16.90
2022-08-16T00:56:56.171Z,16.90
2022-08-16T00:59:06.419Z,16.80
2022-08-16T01:01:36.025Z,16.90
2022-08-16T01:04:05.361Z,16.90
2022-08-16T01:06:48.676Z,16.90
2022-08-16T01:09:18.522Z,16.90
2022-08-16T01:11:53.845Z,17.00
2022-08-16T01:14:31.371Z,17.10
2022-08-16T01:16:59.518Z,17.10
2022-08-16T01:19:34.904Z,17.20
2022-08-16T01:22:47.977Z,17.20
2022-08-16T01:25:13.497Z,17.30
2022-08-16T01:28:01.176Z,17.30
2022-08-16T01:30:32.124Z,17.40
2022-08-16T01:33:14.117Z,17.40
2022-08-16T01:35:45.339Z,17.40
2022-08-16T01:38:19.658Z,17.50
2022-08-16T01:40:50.653Z,17.50
2022-08-16T01:43:18.377Z,17.60
2022-08-16T01:45:46.929Z,17.60
2022-08-16T01:48:27.632Z,17.60
2022-08-16T01:51:08.811Z,17.70
2022-08-16T01:53:43.780Z,17.70
2022-08-16T01:56:31.449Z,17.70
2022-08-16T01:59:01.608Z,17.80
2022-08-16T02:01:29.575Z,17.80
2022-08-16T02:04:10.895Z,17.80
2022-08-16T02:06:46.931Z,17.80
2022-08-16T02:09:20.766Z,17.80
2022-08-16T02:11:52.892Z,17.80
2022-08-16T02:14:26.529Z,17.80
2022-08-16T02:16:57.292Z,17.90
2022-08-16T02:19:59.895Z,17.80
2022-08-16T02:22:33.542Z,17.90
2022-08-16T02:25:10.086Z,17.90
2022-08-16T02:27:39.218Z,17.90
2022-08-16T02:30:36.760Z,17.90
2022-08-16T02:33:03.481Z,17.90
2022-08-16T02:35:31.456Z,17.90
2022-08-16T02:38:01.847Z,17.90
2022-08-16T02:40:36.838Z,17.90
2022-08-16T02:43:05.604Z,18.00
2022-08-16T02:45:33.316Z,18.00
2022-08-16T02:48:29.849Z,17.90
2022-08-16T02:50:53.796Z,17.90
2022-08-16T02:53:30.241Z,17.90
2022-08-16T02:55:59.233Z,18.20
2022-08-16T02:58:29.103Z,17.90
2022-08-16T03:00:57.766Z,17.90
2022-08-16T03:03:27.026Z,17.90
2022-08-16T03:06:38.918Z,17.80
2022-08-16T03:09:13.820Z,17.80
2022-08-16T03:11:47.711Z,17.80
2022-08-16T03:14:21.096Z,17.70
2022-08-16T03:16:59.807Z,17.70
2022-08-16T03:19:47.037Z,17.60
2022-08-16T03:22:19.437Z,17.60
2022-08-16T03:25:01.727Z,17.60
2022-08-16T03:27:32.900Z,17.60
2022-08-16T03:30:16.488Z,17.60
2022-08-16T03:32:51.650Z,17.50
2022-08-16T03:35:23.276Z,17.50
2022-08-16T03:38:02.372Z,17.50
2022-08-16T03:40:36.213Z,17.50
2022-08-16T03:43:20.880Z,17.50
2022-08-16T03:45:52.344Z,17.50
2022-08-16T03:48:36.359Z,17.50
2022-08-16T03:51:12.480Z,17.50
2022-08-16T03:53:57.683Z,17.50
2022-08-16T03:56:30.432Z,17.50
2022-08-16T03:58:59.200Z,17.50
2022-08-16T04:01:32.453Z,17.60
2022-08-16T04:04:01.561Z,17.60
2022-08-16T04:06:30.707Z,17.60
2022-08-16T04:08:58.159Z,17.60
2022-08-16T04:11:25.594Z,17.60
2022-08-16T04:14:01.032Z,17.60
2022-08-16T04:16:40.343Z,17.60
2022-08-16T04:19:31.719Z,17.70
2022-08-16T04:22:00.859Z,17.60
2022-08-16T04:24:32.594Z,17.70
2022-08-16T04:27:00.797Z,17.70
2022-08-16T04:29:46.417Z,17.70
2022-08-16T04:32:16.713Z,17.80
2022-08-16T04:34:48.704Z,17.70
2022-08-16T04:37:16.606Z,17.70
2022-08-16T04:39:57.054Z,17.70
2022-08-16T04:42:29.712Z,17.70
2022-08-16T04:45:04.290Z,17.70
2022-08-16T04:47:35.733Z,17.70
2022-08-16T04:50:16.560Z,17.70
2022-08-16T04:53:21.051Z,17.70
2022-08-16T04:55:53.098Z,17.70
2022-08-16T04:58:45.325Z,17.70
2022-08-16T05:01:12.306Z,17.70
2022-08-16T05:03:41.707Z,17.70
2022-08-16T05:06:45.602Z,17.80
2022-08-16T05:09:49.345Z,17.80
2022-08-16T05:12:22.058Z,17.70
2022-08-16T05:15:01.711Z,17.70
2022-08-16T05:17:34.427Z,17.70
2022-08-16T05:20:38.478Z,17.70
2022-08-16T05:22:59.077Z,17.70
2022-08-16T05:25:36.415Z,17.80
2022-08-16T05:28:11.868Z,17.70
2022-08-16T05:30:44.317Z,17.70
2022-08-16T05:33:32.384Z,17.70
2022-08-16T05:36:03.834Z,17.70
2022-08-16T05:38:39.301Z,17.70
2022-08-16T05:41:13.953Z,17.60
2022-08-16T05:43:46.722Z,17.60
2022-08-16T05:46:29.781Z,17.60
2022-08-16T05:49:22.480Z,17.60
2022-08-16T05:51:55.916Z,17.50
2022-08-16T05:54:25.274Z,17.50
2022-08-16T05:56:56.464Z,17.40
2022-08-16T05:59:24.810Z,17.40
2022-08-16T06:01:55.740Z,17.40
2022-08-16T06:04:36.150Z,17.40
2022-08-16T06:07:08.968Z,17.30
2022-08-16T06:09:43.511Z,17.30
2022-08-16T06:12:27.530Z,17.30
2022-08-16T06:14:59.145Z,17.30
2022-08-16T06:17:41.553Z,17.30
2022-08-16T06:20:23.191Z,17.30
2022-08-16T06:22:57.535Z,17.30
2022-08-16T06:25:39.210Z,17.30
2022-08-16T06:28:09.517Z,17.30
2022-08-16T06:30:44.169Z,17.40
2022-08-16T06:33:22.267Z,17.50
2022-08-16T06:35:55.083Z,17.50
2022-08-16T06:38:33.362Z,17.60
2022-08-16T06:41:14.013Z,17.50
2022-08-16T06:43:43.532Z,17.60
2022-08-16T06:46:31.832Z,17.60
2022-08-16T06:49:05.219Z,17.60
2022-08-16T06:51:47.987Z,17.70
2022-08-16T06:54:20.655Z,17.70
2022-08-16T06:56:53.965Z,17.80
2022-08-16T06:59:25.612Z,17.80
2022-08-16T07:01:58.239Z,17.80
2022-08-16T07:04:33.052Z,17.90
2022-08-16T07:07:09.750Z,18.00
2022-08-16T07:09:39.303Z,18.00
2022-08-16T07:12:08.369Z,18.10
2022-08-16T07:14:40.768Z,18.10
2022-08-16T07:17:11.356Z,18.30
2022-08-16T07:20:03.235Z,18.30
2022-08-16T07:22:42.847Z,18.40
2022-08-16T07:25:28.645Z,18.50
2022-08-16T07:27:57.113Z,18.60
2022-08-16T07:30:39.147Z,18.60
2022-08-16T07:33:51.445Z,18.60
2022-08-16T07:36:22.170Z,18.70
2022-08-16T07:38:51.701Z,18.70
2022-08-16T07:41:20.365Z,18.80
2022-08-16T07:43:53.584Z,18.80
2022-08-16T07:46:38.566Z,18.90
2022-08-16T07:49:33.509Z,18.90
2022-08-16T07:52:19.047Z,19.00
2022-08-16T07:54:48.968Z,19.10
2022-08-16T07:57:18.909Z,19.20
2022-08-16T07:59:48.550Z,19.20
2022-08-16T08:02:20.069Z,19.30
2022-08-16T08:04:55.421Z,19.40
2022-08-16T08:07:27.495Z,19.40
2022-08-16T08:09:57.075Z,19.50
2022-08-16T08:12:32.383Z,19.50
2022-08-16T08:15:09.617Z,19.50
2022-08-16T08:17:42.925Z,19.50
2022-08-16T08:20:26.390Z,19.50
2022-08-16T08:23:01.068Z,19.50
2022-08-16T08:25:54.537Z,19.40
2022-08-16T08:28:23.044Z,19.50
2022-08-16T08:31:00.577Z,19.50
2022-08-16T08:33:31.870Z,19.50
2022-08-16T08:36:05.182Z,19.60
2022-08-16T08:38:44.271Z,19.60
2022-08-16T08:41:19.002Z,19.60
2022-08-16T08:43:52.271Z,19.70
2022-08-16T08:46:22.010Z,19.70
2022-08-16T08:49:01.923Z,19.80
2022-08-16T08:51:38.401Z,19.90
2022-08-16T08:54:18.646Z,19.90
2022-08-16T08:56:51.764Z,20.00
2022-08-16T08:59:34.884Z,20.10
2022-08-16T09:02:11.372Z,20.10
2022-08-16T09:04:44.650Z,20.30
2022-08-16T09:07:19.306Z,20.40
2022-08-16T09:09:48.360Z,20.50
2022-08-16T09:12:31.140Z,20.60
2022-08-16T09:15:14.588Z,20.70
2022-08-16T09:17:51.465Z,20.90
2022-08-16T09:20:20.849Z,21.00
2022-08-16T09:22:52.646Z,21.10
2022-08-16T09:25:33.714Z,21.20
2022-08-16T09:28:09.520Z,21.10
2022-08-16T09:30:58.428Z,21.10
2022-08-16T09:33:25.982Z,21.10
2022-08-16T09:36:01.226Z,21.10
2022-08-16T09:38:32.074Z,21.20
2022-08-16T09:41:01.118Z,21.30
2022-08-16T09:43:59.074Z,21.40
2022-08-16T09:46:45.635Z,21.50
2022-08-16T09:49:04.447Z,21.70
2022-08-16T09:51:36.809Z,21.80
2022-08-16T09:54:06.250Z,21.80
2022-08-16T09:56:38.537Z,21.80
2022-08-16T09:59:07.992Z,21.90
2022-08-16T10:01:36.717Z,21.80
2022-08-16T10:04:29.668Z,21.90
2022-08-16T10:06:54.364Z,21.90
2022-08-16T10:09:25.697Z,21.80
2022-08-16T10:12:31.311Z,21.80
2022-08-16T10:15:00.957Z,21.60
2022-08-16T10:17:29.817Z,21.60
2022-08-16T10:19:57.818Z,21.50
2022-08-16T10:22:25.272Z,21.50
2022-08-16T10:24:55.637Z,21.60
2022-08-16T10:27:29.754Z,21.60
2022-08-16T10:30:25.688Z,21.60
2022-08-16T10:32:55.921Z,21.60
2022-08-16T10:35:23.940Z,21.60
2022-08-16T10:38:00.127Z,21.60
2022-08-16T10:40:28.709Z,21.60
2022-08-16T10:43:00.265Z,21.50
2022-08-16T10:45:28.967Z,21.50
2022-08-16T10:48:27.976Z,21.50
2022-08-16T10:50:59.980Z,21.50
2022-08-16T10:53:32.456Z,21.50
2022-08-16T10:56:02.522Z,21.50
2022-08-16T10:58:34.494Z,21.50
2022-08-16T11:03:57.463Z,21.60
2022-08-16T11:06:26.908Z,21.70
2022-08-16T11:14:31.889Z,22.10
2022-08-16T11:17:10.711Z,22.20
2022-08-16T11:22:47.572Z,22.50
2022-08-16T11:28:08.124Z,22.80
2022-08-16T11:30:38.494Z,22.90
2022-08-16T11:33:10.596Z,23.00
2022-08-16T11:36:22.469Z,23.00
2022-08-16T11:38:51.413Z,23.10
2022-08-16T11:41:14.533Z,23.30
2022-08-16T11:43:42.176Z,23.50
2022-08-16T11:46:44.162Z,23.60
2022-08-16T11:48:59.162Z,23.50
2022-08-16T11:51:26.953Z,23.50
2022-08-16T11:53:55.062Z,23.50
2022-08-16T11:56:39.669Z,23.60
2022-08-16T11:59:10.502Z,23.80
2022-08-16T12:01:55.454Z,24.20
2022-08-16T12:04:28.097Z,24.60
2022-08-16T12:06:55.599Z,25.00
2022-08-16T12:09:24.712Z,25.20
2022-08-16T12:11:53.310Z,25.20
2022-08-16T12:14:23.089Z,25.10
2022-08-16T12:16:55.124Z,25.10
2022-08-16T12:19:35.502Z,25.00
2022-08-16T12:22:18.701Z,25.30
2022-08-16T12:24:51.952Z,25.50
2022-08-16T12:27:24.117Z,25.80
2022-08-16T12:29:52.697Z,26.10
2022-08-16T12:32:35.616Z,26.10
2022-08-16T12:35:09.737Z,26.00
2022-08-16T12:37:37.197Z,25.90
2022-08-16T12:40:21.338Z,25.90
2022-08-16T12:42:54.247Z,25.80
2022-08-16T12:45:22.509Z,25.60
2022-08-16T12:48:31.434Z,25.30
2022-08-16T12:50:57.145Z,25.10
2022-08-16T12:53:24.658Z,24.80
2022-08-16T12:55:52.767Z,24.70
2022-08-16T12:58:48.283Z,24.60
2022-08-16T13:01:09.501Z,24.50
2022-08-16T13:03:40.975Z,24.40
2022-08-16T13:06:08.822Z,24.40
2022-08-16T13:08:36.356Z,24.40
2022-08-16T13:11:04.484Z,24.30
2022-08-16T13:13:35.808Z,24.30
2022-08-16T13:16:15.318Z,24.30
2022-08-16T13:18:52.391Z,24.20
2022-08-16T13:21:23.671Z,24.20
2022-08-16T13:23:55.299Z,24.10
2022-08-16T13:26:24.234Z,24.10
2022-08-16T13:28:54.234Z,24.10
2022-08-16T13:31:21.894Z,24.10
2022-08-16T13:33:51.986Z,24.10
2022-08-16T13:36:45.724Z,24.10
2022-08-16T13:39:10.056Z,24.20
2022-08-16T13:41:37.649Z,24.20
2022-08-16T13:44:09.129Z,24.20
2022-08-16T13:46:37.253Z,24.20
2022-08-16T13:49:06.151Z,24.30
2022-08-16T13:51:33.609Z,24.30
2022-08-16T13:54:06.090Z,24.40
2022-08-16T13:56:39.452Z,24.60
2022-08-16T13:59:19.972Z,25.00
2022-08-16T14:01:55.140Z,25.20
2022-08-16T14:04:26.372Z,25.40
2022-08-16T14:06:54.926Z,25.50
2022-08-16T14:09:24.360Z,25.60
2022-08-16T14:11:53.481Z,25.60
2022-08-16T14:14:28.725Z,25.50
2022-08-16T14:16:57.924Z,25.30
2022-08-16T14:19:27.710Z,25.10
2022-08-16T14:22:14.693Z,25.00
2022-08-16T14:24:47.147Z,24.90
2022-08-16T14:27:17.082Z,24.90
2022-08-16T14:29:45.754Z,24.80
2022-08-16T14:32:33.510Z,24.70
2022-08-16T14:35:07.638Z,24.70
2022-08-16T14:37:35.925Z,24.70
2022-08-16T14:40:07.363Z,24.60
2022-08-16T14:42:36.568Z,24.70
2022-08-16T14:45:05.267Z,24.70
2022-08-16T14:47:35.024Z,24.80
2022-08-16T14:50:03.470Z,24.80
2022-08-16T14:55:20.906Z,24.70
2022-08-16T14:57:48.441Z,24.70
2022-08-16T15:00:20.462Z,24.50
2022-08-16T15:02:56.424Z,24.40
2022-08-16T15:05:25.654Z,24.30
2022-08-16T15:07:56.803Z,24.20
2022-08-16T15:10:26.827Z,24.20
2022-08-16T15:12:58.422Z,24.10
2022-08-16T15:15:27.535Z,24.20
2022-08-16T15:17:56.440Z,24.20
2022-08-16T15:20:29.188Z,24.20
2022-08-16T15:22:57.906Z,24.10
2022-08-16T15:25:29.157Z,24.10
2022-08-16T15:27:58.058Z,24.00
2022-08-16T15:30:47.790Z,23.80
2022-08-16T15:33:16.698Z,23.70
2022-08-16T15:35:44.841Z,23.60
2022-08-16T15:38:31.670Z,23.40
2022-08-16T15:41:02.416Z,23.30
2022-08-16T15:43:38.979Z,23.20
2022-08-16T15:46:54.131Z,23.20
2022-08-16T15:49:12.000Z,23.10
2022-08-16T15:51:40.319Z,23.10
2022-08-16T15:54:21.007Z,23.00
2022-08-16T15:56:56.137Z,23.00
2022-08-16T15:59:27.171Z,22.90
2022-08-16T16:01:56.470Z,22.90
2022-08-16T16:04:25.784Z,22.80
2022-08-16T16:06:55.318Z,22.80
2022-08-16T16:09:34.668Z,22.80
2022-08-16T16:12:16.401Z,22.70
2022-08-16T16:14:53.193Z,22.70
2022-08-16T16:17:20.668Z,22.70
2022-08-16T16:19:49.761Z,22.70
2022-08-16T16:22:21.660Z,22.70
2022-08-16T16:24:51.375Z,22.80
2022-08-16T16:27:18.870Z,22.80
2022-08-16T16:29:57.825Z,22.80
2022-08-16T16:32:34.143Z,22.70
2022-08-16T16:35:06.234Z,22.70
2022-08-16T16:37:33.629Z,22.70
2022-08-16T16:40:02.410Z,22.70
2022-08-16T16:42:35.447Z,22.70
2022-08-16T16:45:11.657Z,22.80
2022-08-16T16:47:41.507Z,22.80
2022-08-16T16:50:09.740Z,22.80
2022-08-16T16:52:44.635Z,22.80
2022-08-16T16:55:13.423Z,22.80
2022-08-16T16:58:03.245Z,22.70
2022-08-16T17:00:38.253Z,22.70
2022-08-16T17:03:16.907Z,22.60
2022-08-16T17:05:56.896Z,22.50
2022-08-16T17:08:30.826Z,22.40
2022-08-16T17:10:58.241Z,22.40
2022-08-16T17:13:27.835Z,22.40
2022-08-16T17:15:56.002Z,22.30
2022-08-16T17:19:17.300Z,22.30
2022-08-16T17:21:11.360Z,22.30
2022-08-16T17:23:58.808Z,22.20
2022-08-16T17:26:31.149Z,22.10
2022-08-16T17:29:02.442Z,22.00
2022-08-16T17:31:43.587Z,21.90
2022-08-16T17:34:29.076Z,21.90
2022-08-16T17:36:59.549Z,21.80
2022-08-16T17:39:29.481Z,21.70
2022-08-16T17:41:58.143Z,21.70
2022-08-16T17:44:25.681Z,21.70
2022-08-16T17:46:53.306Z,21.60
2022-08-16T17:49:21.036Z,21.50
2022-08-16T17:51:48.740Z,21.50
2022-08-16T17:54:18.788Z,21.40
2022-08-16T17:57:00.787Z,21.30
2022-08-16T17:59:29.106Z,21.30
2022-08-16T18:01:57.352Z,21.20
2022-08-16T18:04:49.043Z,21.10
2022-08-16T18:07:13.120Z,21.00
2022-08-16T18:09:40.892Z,20.90
2022-08-16T18:12:20.503Z,20.80
2022-08-16T18:15:03.339Z,20.70
2022-08-16T18:17:31.980Z,20.60
2022-08-16T18:19:59.586Z,20.60
2022-08-16T18:22:30.874Z,20.50
2022-08-16T18:24:58.759Z,20.40
2022-08-16T18:27:27.465Z,20.40
2022-08-16T18:29:55.110Z,20.40
2022-08-16T18:32:24.761Z,20.30
2022-08-16T18:34:54.162Z,20.20
2022-08-16T18:37:24.831Z,20.20
2022-08-16T18:39:52.612Z,20.20
2022-08-16T18:42:20.926Z,20.10
2022-08-16T18:44:49.111Z,20.00
2022-08-16T18:47:16.511Z,20.00
2022-08-16T18:49:44.547Z,19.90
2022-08-16T18:52:15.291Z,19.80
2022-08-16T18:55:01.502Z,19.80
2022-08-16T18:57:30.691Z,19.80
2022-08-16T18:59:58.066Z,19.70
2022-08-16T19:02:45.596Z,19.70
2022-08-16T19:05:14.901Z,19.70
2022-08-16T19:07:42.366Z,19.60
2022-08-16T19:10:10.074Z,19.60
2022-08-16T19:12:42.188Z,19.50
2022-08-16T19:15:15.702Z,19.50
2022-08-16T19:17:44.344Z,19.50
2022-08-16T19:20:12.661Z,19.40
2022-08-16T19:25:46.803Z,19.40
2022-08-16T19:28:51.160Z,19.40
2022-08-16T19:31:14.608Z,19.40
2022-08-16T19:33:53.558Z,19.30
2022-08-16T19:36:31.437Z,19.20
2022-08-16T19:39:04.731Z,19.10
2022-08-16T19:41:34.296Z,19.00
2022-08-16T19:44:01.914Z,18.90
2022-08-16T19:46:29.705Z,18.80
2022-08-16T19:48:57.110Z,18.80
2022-08-16T19:51:24.663Z,18.70
2022-08-16T19:53:52.102Z,18.70
2022-08-16T19:56:21.593Z,18.60
2022-08-16T19:59:17.020Z,18.60
2022-08-16T20:01:41.682Z,18.50
2022-08-16T20:04:12.507Z,18.50
2022-08-16T20:06:40.988Z,18.50
2022-08-16T20:09:08.470Z,18.40
2022-08-16T20:11:37.983Z,18.40
2022-08-16T20:14:05.721Z,18.30
2022-08-16T20:16:33.203Z,18.30
2022-08-16T20:19:00.692Z,18.20
2022-08-16T20:21:28.500Z,18.20
2022-08-16T20:24:09.918Z,18.10
2022-08-16T20:26:43.528Z,18.10
2022-08-16T20:29:10.987Z,18.10
2022-08-16T20:31:38.651Z,18.10
2022-08-16T20:34:06.300Z,18.10
2022-08-16T20:36:33.742Z,18.10
2022-08-16T20:39:03.963Z,18.00
2022-08-16T20:41:31.665Z,18.00
2022-08-16T20:43:59.123Z,17.90
2022-08-16T20:46:26.883Z,17.90
2022-08-16T20:48:54.469Z,17.70
2022-08-16T20:51:21.846Z,17.70
2022-08-16T20:53:49.274Z,17.60
2022-08-16T20:56:16.804Z,17.60
2022-08-16T20:58:44.210Z,17.60
2022-08-16T21:01:11.812Z,17.60
2022-08-16T21:03:39.266Z,17.60
2022-08-16T21:06:06.866Z,17.60
2022-08-16T21:08:52.254Z,17.60
2022-08-16T21:11:21.846Z,17.60
2022-08-16T21:13:49.553Z,17.60
2022-08-16T21:16:17.748Z,17.60
2022-08-16T21:18:45.220Z,17.50
2022-08-16T21:21:12.728Z,17.50
2022-08-16T21:23:40.714Z,17.50
2022-08-16T21:26:10.836Z,17.40
2022-08-16T21:28:43.205Z,17.50
2022-08-16T21:31:12.366Z,17.40
2022-08-16T21:33:40.123Z,17.40
2022-08-16T21:36:07.748Z,17.40
2022-08-16T21:38:35.478Z,17.40
2022-08-16T21:41:03.548Z,17.40
2022-08-16T21:43:33.228Z,17.40
2022-08-16T21:46:01.561Z,17.40
2022-08-16T21:48:34.451Z,17.40
2022-08-16T21:51:05.805Z,17.40
2022-08-16T21:53:33.349Z,17.40
2022-08-16T21:56:00.931Z,17.40
2022-08-16T21:58:28.657Z,17.40
2022-08-16T22:00:56.293Z,17.30
2022-08-16T22:03:24.137Z,17.30
2022-08-16T22:06:11.661Z,17.30
2022-08-16T22:08:48.893Z,17.30
2022-08-16T22:11:19.403Z,17.30
2022-08-16T22:13:57.321Z,17.30
2022-08-16T22:16:33.609Z,17.30
2022-08-16T22:19:01.668Z,17.30
2022-08-16T22:21:29.732Z,17.20
2022-08-16T22:23:58.802Z,17.20
2022-08-16T22:26:29.837Z,17.20
2022-08-16T22:29:03.418Z,17.20
2022-08-16T22:31:31.353Z,17.10
2022-08-16T22:33:59.091Z,17.10
2022-08-16T22:36:27.885Z,17.00
2022-08-16T22:38:58.001Z,17.00
2022-08-16T22:41:27.223Z,17.00
2022-08-16T22:43:54.747Z,17.00
2022-08-16T22:46:22.463Z,17.00
2022-08-16T22:48:50.701Z,17.00
2022-08-16T22:51:22.303Z,17.00
2022-08-16T22:53:49.871Z,17.00
2022-08-16T22:56:17.622Z,17.00
2022-08-16T22:58:45.558Z,17.00
2022-08-16T23:01:13.604Z,16.90
2022-08-16T23:03:41.319Z,16.90
2022-08-16T23:06:09.149Z,16.80
2022-08-16T23:08:40.669Z,16.90
2022-08-16T23:11:10.370Z,16.90
2022-08-16T23:13:52.483Z,16.80
2022-08-16T23:16:32.500Z,16.80
2022-08-16T23:19:03.350Z,16.80
2022-08-16T23:21:31.168Z,16.80
2022-08-16T23:23:58.676Z,16.80
2022-08-16T23:26:45.366Z,16.70
2022-08-16T23:29:21.123Z,16.80
2022-08-16T23:31:57.528Z,16.70
2022-08-16T23:34:25.329Z,16.70
2022-08-16T23:36:52.711Z,16.80
2022-08-16T23:39:20.249Z,16.70
2022-08-16T23:41:47.645Z,16.70
2022-08-16T23:44:54.933Z,16.70
2022-08-16T23:47:02.831Z,16.70
2022-08-16T23:49:58.704Z,16.60
2022-08-16T23:52:19.048Z,16.60
2022-08-16T23:55:06.806Z,16.50
2022-08-16T23:57:34.236Z,16.50
